sensor_id;sensor_type;location;lat;lon;timestamp;pressure;altitude;pressure_sealevel;temperature;humidity
7940;BME280;4015;48.888;9.226;2023-04-09T00:02:12;156988.78;;;6.93;84.36
7940;BME280;4015;48.888;9.226;2023-04-09T00:04:37;157001.53;;;6.98;84.48
7940;BME280;4015;48.888;9.226;2023-04-09T00:07:02;156970.94;;;6.86;84.96
7940;BME280;4015;48.888;9.226;2023-04-09T00:09:28;156969.69;;;6.86;84.90
7940;BME280;4015;48.888;9.226;2023-04-09T00:11:53;156944.19;;;6.75;85.37
7940;BME280;4015;48.888;9.226;2023-04-09T00:14:18;156958.19;;;6.81;85.16
7940;BME280;4015;48.888;9.226;2023-04-09T00:16:44;156960.75;;;6.82;85.50
7940;BME280;4015;48.888;9.226;2023-04-09T00:19:09;156972.22;;;6.87;85.20
7940;BME280;4015;48.888;9.226;2023-04-09T00:21:36;156970.94;;;6.86;84.88
7940;BME280;4015;48.888;9.226;2023-04-09T00:24:01;156908.50;;;6.61;85.36
7940;BME280;4015;48.888;9.226;2023-04-09T00:26:26;156893.22;;;6.55;86.57
7940;BME280;4015;48.888;9.226;2023-04-09T00:28:52;156968.41;;;6.85;85.74
7940;BME280;4015;48.888;9.226;2023-04-09T00:31:17;157001.53;;;6.98;85.41
7940;BME280;4015;48.888;9.226;2023-04-09T00:33:42;157004.06;;;6.99;85.81
7940;BME280;4015;48.888;9.226;2023-04-09T00:36:08;156997.69;;;6.97;85.79
7940;BME280;4015;48.888;9.226;2023-04-09T00:38:33;157002.81;;;6.99;85.81
7940;BME280;4015;48.888;9.226;2023-04-09T00:40:58;157009.16;;;7.01;85.94
7940;BME280;4015;48.888;9.226;2023-04-09T00:43:24;157039.75;;;7.14;85.95
7940;BME280;4015;48.888;9.226;2023-04-09T00:45:49;157021.91;;;7.07;86.26
7940;BME280;4015;48.888;9.226;2023-04-09T00:48:15;157049.97;;;7.18;86.06
7940;BME280;4015;48.888;9.226;2023-04-09T00:50:41;157049.97;;;7.18;85.72
7940;BME280;4015;48.888;9.226;2023-04-09T00:53:07;157051.22;;;7.18;86.26
7940;BME280;4015;48.888;9.226;2023-04-09T00:55:33;157063.97;;;7.23;86.12
7940;BME280;4015;48.888;9.226;2023-04-09T00:58:00;157070.34;;;7.26;85.89
7940;BME280;4015;48.888;9.226;2023-04-09T01:00:25;157075.41;;;7.28;85.52
7940;BME280;4015;48.888;9.226;2023-04-09T01:02:52;157072.88;;;7.27;85.64
7940;BME280;4015;48.888;9.226;2023-04-09T01:05:18;157080.56;;;7.30;85.80
7940;BME280;4015;48.888;9.226;2023-04-09T01:10:46;157089.44;;;7.34;85.33
7940;BME280;4015;48.888;9.226;2023-04-09T01:13:29;157084.38;;;7.32;85.23
7940;BME280;4015;48.888;9.226;2023-04-09T01:16:00;157074.16;;;7.27;85.82
7940;BME280;4015;48.888;9.226;2023-04-09T01:18:49;157121.31;;;7.46;84.88
7940;BME280;4015;48.888;9.226;2023-04-09T01:21:22;157135.34;;;7.52;84.49
7940;BME280;4015;48.888;9.226;2023-04-09T01:26:58;157077.97;;;7.29;85.46
7940;BME280;4015;48.888;9.226;2023-04-09T01:29:30;157055.03;;;7.20;86.04
7940;BME280;4015;48.888;9.226;2023-04-09T01:31:57;157051.22;;;7.18;86.18
7940;BME280;4015;48.888;9.226;2023-04-09T01:34:25;157049.97;;;7.18;86.52
7940;BME280;4015;48.888;9.226;2023-04-09T01:36:55;157055.03;;;7.20;86.38
7940;BME280;4015;48.888;9.226;2023-04-09T01:39:21;157055.03;;;7.20;86.69
7940;BME280;4015;48.888;9.226;2023-04-09T01:41:48;157066.53;;;7.24;86.49
7940;BME280;4015;48.888;9.226;2023-04-09T01:44:15;157061.41;;;7.22;86.31
7940;BME280;4015;48.888;9.226;2023-04-09T01:46:41;157072.88;;;7.27;86.13
7940;BME280;4015;48.888;9.226;2023-04-09T01:49:08;157077.97;;;7.29;85.83
7940;BME280;4015;48.888;9.226;2023-04-09T01:51:34;157067.78;;;7.25;85.58
7940;BME280;4015;48.888;9.226;2023-04-09T01:54:00;157075.41;;;7.28;85.49
7940;BME280;4015;48.888;9.226;2023-04-09T01:56:25;157077.97;;;7.29;85.58
7940;BME280;4015;48.888;9.226;2023-04-09T01:58:51;157094.56;;;7.36;85.06
7940;BME280;4015;48.888;9.226;2023-04-09T02:01:26;157094.56;;;7.36;85.08
7940;BME280;4015;48.888;9.226;2023-04-09T02:03:59;157109.88;;;7.42;85.17
7940;BME280;4015;48.888;9.226;2023-04-09T02:06:39;157107.28;;;7.41;85.19
7940;BME280;4015;48.888;9.226;2023-04-09T02:09:07;157117.50;;;7.45;85.13
7940;BME280;4015;48.888;9.226;2023-04-09T02:11:35;157120.03;;;7.46;84.99
7940;BME280;4015;48.888;9.226;2023-04-09T02:14:03;157090.72;;;7.34;85.24
7940;BME280;4015;48.888;9.226;2023-04-09T02:16:31;157090.72;;;7.34;85.47
7940;BME280;4015;48.888;9.226;2023-04-09T02:18:56;157069.06;;;7.25;86.20
7940;BME280;4015;48.888;9.226;2023-04-09T02:21:26;157043.56;;;7.15;86.51
7940;BME280;4015;48.888;9.226;2023-04-09T02:23:52;157062.72;;;7.23;86.09
7940;BME280;4015;48.888;9.226;2023-04-09T02:26:18;157077.97;;;7.29;85.78
7940;BME280;4015;48.888;9.226;2023-04-09T02:28:43;157072.88;;;7.27;85.61
7940;BME280;4015;48.888;9.226;2023-04-09T02:31:08;157061.41;;;7.22;85.66
7940;BME280;4015;48.888;9.226;2023-04-09T02:33:35;157043.56;;;7.15;86.04
7940;BME280;4015;48.888;9.226;2023-04-09T02:36:00;157046.09;;;7.16;85.49
7940;BME280;4015;48.888;9.226;2023-04-09T02:38:25;157030.81;;;7.10;85.51
7940;BME280;4015;48.888;9.226;2023-04-09T02:40:51;157032.13;;;7.11;85.59
7940;BME280;4015;48.888;9.226;2023-04-09T02:43:16;157005.34;;;7.00;85.44
7940;BME280;4015;48.888;9.226;2023-04-09T02:45:41;156997.69;;;6.97;85.71
7940;BME280;4015;48.888;9.226;2023-04-09T02:48:07;157011.69;;;7.02;85.37
7940;BME280;4015;48.888;9.226;2023-04-09T02:50:32;157014.22;;;7.03;85.34
7940;BME280;4015;48.888;9.226;2023-04-09T02:52:57;156993.88;;;6.95;85.70
7940;BME280;4015;48.888;9.226;2023-04-09T02:55:23;156998.94;;;6.97;85.66
7940;BME280;4015;48.888;9.226;2023-04-09T02:57:48;156996.41;;;6.96;85.63
7940;BME280;4015;48.888;9.226;2023-04-09T03:00:13;156958.19;;;6.81;86.07
7940;BME280;4015;48.888;9.226;2023-04-09T03:02:39;156944.19;;;6.75;86.76
7940;BME280;4015;48.888;9.226;2023-04-09T03:05:05;156969.69;;;6.86;86.74
7940;BME280;4015;48.888;9.226;2023-04-09T03:07:30;156973.50;;;6.87;86.70
7940;BME280;4015;48.888;9.226;2023-04-09T03:09:55;156974.75;;;6.88;86.79
7940;BME280;4015;48.888;9.226;2023-04-09T03:12:21;156977.31;;;6.89;86.79
7940;BME280;4015;48.888;9.226;2023-04-09T03:14:46;156997.69;;;6.97;87.05
7940;BME280;4015;48.888;9.226;2023-04-09T03:17:11;157014.22;;;7.03;86.84
7940;BME280;4015;48.888;9.226;2023-04-09T03:19:36;157014.22;;;7.03;86.71
7940;BME280;4015;48.888;9.226;2023-04-09T03:22:02;157015.56;;;7.04;86.77
7940;BME280;4015;48.888;9.226;2023-04-09T03:24:27;157010.44;;;7.02;86.42
7940;BME280;4015;48.888;9.226;2023-04-09T03:26:52;157011.69;;;7.02;86.56
7940;BME280;4015;48.888;9.226;2023-04-09T03:29:18;157018.09;;;7.05;86.70
7940;BME280;4015;48.888;9.226;2023-04-09T03:31:43;157023.19;;;7.07;86.44
7940;BME280;4015;48.888;9.226;2023-04-09T03:34:08;157021.91;;;7.07;86.79
7940;BME280;4015;48.888;9.226;2023-04-09T03:36:34;157018.09;;;7.05;87.40
7940;BME280;4015;48.888;9.226;2023-04-09T03:38:59;157000.25;;;6.98;87.32
7940;BME280;4015;48.888;9.226;2023-04-09T03:41:26;157000.25;;;6.98;87.40
7940;BME280;4015;48.888;9.226;2023-04-09T03:43:51;156982.38;;;6.91;87.37
7940;BME280;4015;48.888;9.226;2023-04-09T03:46:17;156981.13;;;6.90;87.21
7940;BME280;4015;48.888;9.226;2023-04-09T03:48:42;156964.56;;;6.84;87.31
7940;BME280;4015;48.888;9.226;2023-04-09T03:51:14;156953.13;;;6.79;87.82
7940;BME280;4015;48.888;9.226;2023-04-09T03:53:40;156960.75;;;6.82;87.83
7940;BME280;4015;48.888;9.226;2023-04-09T03:56:06;156976.03;;;6.88;87.66
7940;BME280;4015;48.888;9.226;2023-04-09T03:58:32;156967.09;;;6.85;87.78
7940;BME280;4015;48.888;9.226;2023-04-09T04:00:57;156998.94;;;6.97;87.46
7940;BME280;4015;48.888;9.226;2023-04-09T04:03:22;156988.78;;;6.93;87.22
7940;BME280;4015;48.888;9.226;2023-04-09T04:05:47;156969.69;;;6.86;87.34
7940;BME280;4015;48.888;9.226;2023-04-09T04:08:13;156965.81;;;6.84;87.76
7940;BME280;4015;48.888;9.226;2023-04-09T04:10:38;156967.09;;;6.85;87.66
7940;BME280;4015;48.888;9.226;2023-04-09T04:13:05;156983.66;;;6.91;87.17
7940;BME280;4015;48.888;9.226;2023-04-09T04:15:32;156963.28;;;6.83;87.78
7940;BME280;4015;48.888;9.226;2023-04-09T04:17:58;156949.25;;;6.78;87.49
7940;BME280;4015;48.888;9.226;2023-04-09T04:20:23;156998.94;;;6.97;87.15
7940;BME280;4015;48.888;9.226;2023-04-09T04:22:48;156986.25;;;6.92;86.95
7940;BME280;4015;48.888;9.226;2023-04-09T04:25:14;156984.97;;;6.92;86.51
7940;BME280;4015;48.888;9.226;2023-04-09T04:27:42;156992.59;;;6.95;86.56
7940;BME280;4015;48.888;9.226;2023-04-09T04:30:08;157001.53;;;6.98;86.42
7940;BME280;4015;48.888;9.226;2023-04-09T04:32:33;157001.53;;;6.98;86.47
7940;BME280;4015;48.888;9.226;2023-04-09T04:34:59;156958.19;;;6.81;87.40
7940;BME280;4015;48.888;9.226;2023-04-09T04:37:25;156960.75;;;6.82;87.76
7940;BME280;4015;48.888;9.226;2023-04-09T04:39:50;156942.91;;;6.75;87.98
7940;BME280;4015;48.888;9.226;2023-04-09T04:42:15;156914.88;;;6.64;88.43
7940;BME280;4015;48.888;9.226;2023-04-09T04:44:42;156916.13;;;6.64;88.29
7940;BME280;4015;48.888;9.226;2023-04-09T04:47:07;156926.34;;;6.68;88.58
7940;BME280;4015;48.888;9.226;2023-04-09T04:49:32;156930.16;;;6.70;88.16
7940;BME280;4015;48.888;9.226;2023-04-09T04:51:58;156926.34;;;6.68;88.40
7940;BME280;4015;48.888;9.226;2023-04-09T04:54:23;156937.81;;;6.73;88.73
7940;BME280;4015;48.888;9.226;2023-04-09T04:56:48;156937.81;;;6.73;88.46
7940;BME280;4015;48.888;9.226;2023-04-09T04:59:14;156958.19;;;6.81;87.91
7940;BME280;4015;48.888;9.226;2023-04-09T05:01:39;156960.75;;;6.82;88.60
7940;BME280;4015;48.888;9.226;2023-04-09T05:04:04;156937.81;;;6.73;89.00
7940;BME280;4015;48.888;9.226;2023-04-09T05:06:30;156953.13;;;6.79;88.89
7940;BME280;4015;48.888;9.226;2023-04-09T05:08:55;156995.13;;;6.96;88.62
7940;BME280;4015;48.888;9.226;2023-04-09T05:11:25;157006.63;;;7.00;88.13
7940;BME280;4015;48.888;9.226;2023-04-09T05:13:50;157033.41;;;7.11;87.16
7940;BME280;4015;48.888;9.226;2023-04-09T05:16:17;157015.56;;;7.04;87.75
7940;BME280;4015;48.888;9.226;2023-04-09T05:18:42;157041.00;;;7.14;87.46
7940;BME280;4015;48.888;9.226;2023-04-09T05:21:08;157053.78;;;7.19;87.37
7940;BME280;4015;48.888;9.226;2023-04-09T05:23:33;157063.97;;;7.23;86.98
7940;BME280;4015;48.888;9.226;2023-04-09T05:25:58;157055.03;;;7.20;86.70
7940;BME280;4015;48.888;9.226;2023-04-09T05:28:23;157080.56;;;7.30;86.36
7940;BME280;4015;48.888;9.226;2023-04-09T05:30:49;157090.72;;;7.34;86.01
7940;BME280;4015;48.888;9.226;2023-04-09T05:33:14;157079.28;;;7.29;86.43
7940;BME280;4015;48.888;9.226;2023-04-09T05:35:40;157083.09;;;7.31;86.77
7940;BME280;4015;48.888;9.226;2023-04-09T05:38:05;157095.84;;;7.36;86.33
7940;BME280;4015;48.888;9.226;2023-04-09T05:40:31;157108.56;;;7.41;86.09
7940;BME280;4015;48.888;9.226;2023-04-09T05:42:56;157112.41;;;7.43;86.21
7940;BME280;4015;48.888;9.226;2023-04-09T05:45:22;157134.06;;;7.51;86.22
7940;BME280;4015;48.888;9.226;2023-04-09T05:47:47;157174.88;;;7.68;86.00
7940;BME280;4015;48.888;9.226;2023-04-09T05:50:13;157182.50;;;7.71;85.52
7940;BME280;4015;48.888;9.226;2023-04-09T05:52:38;157174.88;;;7.68;85.16
7940;BME280;4015;48.888;9.226;2023-04-09T05:55:04;157194.00;;;7.75;85.22
7940;BME280;4015;48.888;9.226;2023-04-09T05:57:31;157250.06;;;7.98;84.43
7940;BME280;4015;48.888;9.226;2023-04-09T05:59:56;157239.91;;;7.94;83.80
7940;BME280;4015;48.888;9.226;2023-04-09T06:02:21;157255.22;;;8.00;83.64
7940;BME280;4015;48.888;9.226;2023-04-09T06:04:47;157269.25;;;8.05;84.68
7940;BME280;4015;48.888;9.226;2023-04-09T06:07:12;157303.66;;;8.19;83.88
7940;BME280;4015;48.888;9.226;2023-04-09T06:09:38;157384.06;;;8.51;82.64
7940;BME280;4015;48.888;9.226;2023-04-09T06:12:03;157381.53;;;8.50;82.37
7940;BME280;4015;48.888;9.226;2023-04-09T06:14:29;157431.28;;;8.70;81.91
7940;BME280;4015;48.888;9.226;2023-04-09T06:16:58;157680.13;;;9.69;79.25
7940;BME280;4015;48.888;9.226;2023-04-09T06:19:23;157908.75;;;10.61;75.23
7940;BME280;4015;48.888;9.226;2023-04-09T06:21:49;158178.38;;;11.68;70.77
7940;BME280;4015;48.888;9.226;2023-04-09T06:24:14;158353.56;;;12.38;68.53
7940;BME280;4015;48.888;9.226;2023-04-09T06:26:39;158549.31;;;13.16;66.03
7940;BME280;4015;48.888;9.226;2023-04-09T06:29:05;158566.00;;;13.22;64.85
7940;BME280;4015;48.888;9.226;2023-04-09T06:31:31;158632.53;;;13.49;63.91
7940;BME280;4015;48.888;9.226;2023-04-09T06:33:56;158642.78;;;13.53;64.71
7940;BME280;4015;48.888;9.226;2023-04-09T06:36:21;158610.78;;;13.40;64.32
7940;BME280;4015;48.888;9.226;2023-04-09T06:38:47;158782.31;;;14.09;63.65
7940;BME280;4015;48.888;9.226;2023-04-09T06:41:12;158725.97;;;13.86;62.85
7940;BME280;4015;48.888;9.226;2023-04-09T06:43:38;158749.03;;;13.95;62.59
7940;BME280;4015;48.888;9.226;2023-04-09T06:46:05;158788.69;;;14.11;62.23
7940;BME280;4015;48.888;9.226;2023-04-09T06:48:30;158839.88;;;14.31;61.45
7940;BME280;4015;48.888;9.226;2023-04-09T06:50:55;158960.31;;;14.79;61.00
7940;BME280;4015;48.888;9.226;2023-04-09T06:53:21;158900.13;;;14.55;60.00
7940;BME280;4015;48.888;9.226;2023-04-09T06:55:46;159011.53;;;15.00;59.26
7940;BME280;4015;48.888;9.226;2023-04-09T06:58:11;159048.66;;;15.15;58.83
7940;BME280;4015;48.888;9.226;2023-04-09T07:00:37;159030.75;;;15.07;59.22
7940;BME280;4015;48.888;9.226;2023-04-09T07:03:03;158952.59;;;14.76;59.20
7940;BME280;4015;48.888;9.226;2023-04-09T07:05:29;159130.69;;;15.47;57.47
7940;BME280;4015;48.888;9.226;2023-04-09T07:07:55;159256.31;;;15.97;56.23
7940;BME280;4015;48.888;9.226;2023-04-09T07:10:20;159238.34;;;15.90;55.16
7940;BME280;4015;48.888;9.226;2023-04-09T07:12:46;159215.31;;;15.81;55.85
7940;BME280;4015;48.888;9.226;2023-04-09T07:15:11;159506.31;;;16.96;52.85
7940;BME280;4015;48.888;9.226;2023-04-09T07:17:36;159366.56;;;16.41;53.47
7940;BME280;4015;48.888;9.226;2023-04-09T07:20:02;159237.06;;;15.89;55.24
7940;BME280;4015;48.888;9.226;2023-04-09T07:22:28;159289.66;;;16.10;54.99
7940;BME280;4015;48.888;9.226;2023-04-09T07:24:53;159406.28;;;16.57;54.68
7940;BME280;4015;48.888;9.226;2023-04-09T07:27:20;159519.16;;;17.02;53.31
7940;BME280;4015;48.888;9.226;2023-04-09T07:29:45;159514.03;;;16.99;53.38
7940;BME280;4015;48.888;9.226;2023-04-09T07:32:11;159290.94;;;16.11;54.55
7940;BME280;4015;48.888;9.226;2023-04-09T07:34:36;159591.00;;;17.30;51.95
7940;BME280;4015;48.888;9.226;2023-04-09T07:37:02;159313.97;;;16.20;54.53
7940;BME280;4015;48.888;9.226;2023-04-09T07:39:27;159130.69;;;15.47;55.75
7940;BME280;4015;48.888;9.226;2023-04-09T07:41:52;159097.41;;;15.34;56.14
7940;BME280;4015;48.888;9.226;2023-04-09T07:44:18;159333.19;;;16.28;52.52
7940;BME280;4015;48.888;9.226;2023-04-09T07:46:43;159405.00;;;16.56;51.64
7940;BME280;4015;48.888;9.226;2023-04-09T07:49:08;159473.00;;;16.83;52.91
7940;BME280;4015;48.888;9.226;2023-04-09T07:51:34;159482.00;;;16.87;51.57
7940;BME280;4015;48.888;9.226;2023-04-09T07:53:59;159587.16;;;17.29;50.12
7940;BME280;4015;48.888;9.226;2023-04-09T07:56:24;159496.09;;;16.92;51.42
7940;BME280;4015;48.888;9.226;2023-04-09T07:58:50;159638.47;;;17.49;49.74
7940;BME280;4015;48.888;9.226;2023-04-09T08:01:15;159648.69;;;17.53;51.28
7940;BME280;4015;48.888;9.226;2023-04-09T08:03:41;159755.22;;;17.95;49.36
7940;BME280;4015;48.888;9.226;2023-04-09T08:06:06;159584.56;;;17.27;48.35
7940;BME280;4015;48.888;9.226;2023-04-09T08:08:32;159624.34;;;17.43;49.71
7940;BME280;4015;48.888;9.226;2023-04-09T08:10:57;159502.50;;;16.95;48.72
7940;BME280;4015;48.888;9.226;2023-04-09T08:13:23;159549.94;;;17.14;47.39
7940;BME280;4015;48.888;9.226;2023-04-09T08:15:52;159589.72;;;17.30;48.49
7940;BME280;4015;48.888;9.226;2023-04-09T08:18:17;159261.44;;;15.99;50.19
7940;BME280;4015;48.888;9.226;2023-04-09T08:20:42;159183.25;;;15.68;49.94
7940;BME280;4015;48.888;9.226;2023-04-09T08:23:12;159443.50;;;16.71;50.43
7940;BME280;4015;48.888;9.226;2023-04-09T08:25:37;159549.94;;;17.14;48.06
7940;BME280;4015;48.888;9.226;2023-04-09T08:28:03;159825.84;;;18.23;46.84
7940;BME280;4015;48.888;9.226;2023-04-09T08:30:28;159594.84;;;17.32;47.76
7940;BME280;4015;48.888;9.226;2023-04-09T08:32:54;159498.66;;;16.93;49.16
7940;BME280;4015;48.888;9.226;2023-04-09T08:35:19;159417.84;;;16.61;48.02
7940;BME280;4015;48.888;9.226;2023-04-09T08:37:45;159633.28;;;17.47;47.67
7940;BME280;4015;48.888;9.226;2023-04-09T08:40:11;159881.00;;;18.45;47.18
7940;BME280;4015;48.888;9.226;2023-04-09T08:42:42;160092.84;;;19.29;46.33
7940;BME280;4015;48.888;9.226;2023-04-09T08:45:09;160180.25;;;19.64;44.80
7940;BME280;4015;48.888;9.226;2023-04-09T08:47:36;160077.44;;;19.23;43.64
7940;BME280;4015;48.888;9.226;2023-04-09T08:50:02;160271.44;;;20.00;42.82
7940;BME280;4015;48.888;9.226;2023-04-09T08:52:31;160069.75;;;19.20;42.80
7940;BME280;4015;48.888;9.226;2023-04-09T08:54:57;160077.44;;;19.23;43.55
7940;BME280;4015;48.888;9.226;2023-04-09T08:57:23;160036.38;;;19.07;44.57
7940;BME280;4015;48.888;9.226;2023-04-09T08:59:48;159707.75;;;17.76;43.50
7940;BME280;4015;48.888;9.226;2023-04-09T09:02:13;159675.66;;;17.64;46.91
7940;BME280;4015;48.888;9.226;2023-04-09T09:04:49;159429.38;;;16.66;46.51
7940;BME280;4015;48.888;9.226;2023-04-09T09:07:15;159234.50;;;15.88;49.59
7940;BME280;4015;48.888;9.226;2023-04-09T09:09:50;159174.28;;;15.64;48.54
7940;BME280;4015;48.888;9.226;2023-04-09T09:12:40;159144.81;;;15.53;49.86
7940;BME280;4015;48.888;9.226;2023-04-09T09:15:28;159301.16;;;16.15;49.49
7940;BME280;4015;48.888;9.226;2023-04-09T09:17:55;159235.78;;;15.89;47.52
7940;BME280;4015;48.888;9.226;2023-04-09T09:20:22;159402.44;;;16.55;47.05
7940;BME280;4015;48.888;9.226;2023-04-09T09:22:49;159694.94;;;17.71;45.42
7940;BME280;4015;48.888;9.226;2023-04-09T09:25:15;159784.75;;;18.07;44.84
7940;BME280;4015;48.888;9.226;2023-04-09T09:27:40;159718.03;;;17.81;43.58
7940;BME280;4015;48.888;9.226;2023-04-09T09:30:07;159474.28;;;16.84;46.20
7940;BME280;4015;48.888;9.226;2023-04-09T09:32:35;159273.00;;;16.04;48.37
7940;BME280;4015;48.888;9.226;2023-04-09T09:35:01;159115.31;;;15.41;48.88
7940;BME280;4015;48.888;9.226;2023-04-09T09:37:28;159061.50;;;15.20;49.79
7940;BME280;4015;48.888;9.226;2023-04-09T09:39:54;159262.72;;;16.00;49.35
7940;BME280;4015;48.888;9.226;2023-04-09T09:42:19;159180.72;;;15.67;48.64
7940;BME280;4015;48.888;9.226;2023-04-09T09:44:46;159192.25;;;15.72;47.94
7940;BME280;4015;48.888;9.226;2023-04-09T09:47:11;159148.63;;;15.54;47.69
7940;BME280;4015;48.888;9.226;2023-04-09T09:49:38;159211.47;;;15.79;48.87
7940;BME280;4015;48.888;9.226;2023-04-09T09:52:09;159198.66;;;15.74;46.76
7940;BME280;4015;48.888;9.226;2023-04-09T09:54:47;159174.28;;;15.64;48.81
7940;BME280;4015;48.888;9.226;2023-04-09T09:57:18;159351.19;;;16.35;46.25
7940;BME280;4015;48.888;9.226;2023-04-09T09:59:50;159832.22;;;18.26;45.18
7940;BME280;4015;48.888;9.226;2023-04-09T10:02:19;159874.59;;;18.43;42.29
7940;BME280;4015;48.888;9.226;2023-04-09T10:04:48;159850.19;;;18.33;43.35
7940;BME280;4015;48.888;9.226;2023-04-09T10:07:15;159782.19;;;18.06;43.10
7940;BME280;4015;48.888;9.226;2023-04-09T10:09:44;159601.22;;;17.34;43.41
7940;BME280;4015;48.888;9.226;2023-04-09T10:12:12;159693.59;;;17.71;42.40
7940;BME280;4015;48.888;9.226;2023-04-09T10:14:39;159644.84;;;17.51;43.21
7940;BME280;4015;48.888;9.226;2023-04-09T10:17:05;160184.09;;;19.65;41.71
7940;BME280;4015;48.888;9.226;2023-04-09T10:19:35;160347.25;;;20.30;41.20
7940;BME280;4015;48.888;9.226;2023-04-09T10:22:14;160321.53;;;20.20;39.07
7940;BME280;4015;48.888;9.226;2023-04-09T10:24:40;160502.75;;;20.92;39.50
7940;BME280;4015;48.888;9.226;2023-04-09T10:27:14;160483.47;;;20.84;38.67
7940;BME280;4015;48.888;9.226;2023-04-09T10:29:44;160756.03;;;21.92;37.15
7940;BME280;4015;48.888;9.226;2023-04-09T10:32:10;160446.22;;;20.69;37.67
7940;BME280;4015;48.888;9.226;2023-04-09T10:34:40;160154.50;;;19.54;39.99
7940;BME280;4015;48.888;9.226;2023-04-09T10:37:07;160419.22;;;20.59;38.46
7940;BME280;4015;48.888;9.226;2023-04-09T10:39:38;160482.19;;;20.84;34.58
7940;BME280;4015;48.888;9.226;2023-04-09T10:42:07;160482.19;;;20.84;38.56
7940;BME280;4015;48.888;9.226;2023-04-09T10:44:38;160506.63;;;20.93;35.49
7940;BME280;4015;48.888;9.226;2023-04-09T10:47:07;160244.47;;;19.89;36.70
7940;BME280;4015;48.888;9.226;2023-04-09T10:49:37;159965.75;;;18.79;39.05
7940;BME280;4015;48.888;9.226;2023-04-09T10:52:06;159884.84;;;18.47;39.20
7940;BME280;4015;48.888;9.226;2023-04-09T10:59:32;160062.06;;;19.17;38.68
7940;BME280;4015;48.888;9.226;2023-04-09T11:01:58;159938.81;;;18.68;40.08
7940;BME280;4015;48.888;9.226;2023-04-09T11:04:32;160234.16;;;19.85;38.60
7940;BME280;4015;48.888;9.226;2023-04-09T11:07:03;160492.50;;;20.88;38.07
7940;BME280;4015;48.888;9.226;2023-04-09T11:09:29;160654.47;;;21.52;36.82
7940;BME280;4015;48.888;9.226;2023-04-09T11:11:58;160673.75;;;21.60;37.20
7940;BME280;4015;48.888;9.226;2023-04-09T11:14:23;160594.00;;;21.28;36.95
7940;BME280;4015;48.888;9.226;2023-04-09T11:16:49;160596.63;;;21.29;36.64
7940;BME280;4015;48.888;9.226;2023-04-09T11:19:15;160619.78;;;21.38;34.84
7940;BME280;4015;48.888;9.226;2023-04-09T11:21:41;160637.78;;;21.45;36.67
7940;BME280;4015;48.888;9.226;2023-04-09T11:24:11;160750.91;;;21.90;38.18
7940;BME280;4015;48.888;9.226;2023-04-09T11:26:37;160678.88;;;21.62;36.00
7940;BME280;4015;48.888;9.226;2023-04-09T11:29:08;160711.03;;;21.74;35.59
7940;BME280;4015;48.888;9.226;2023-04-09T11:31:34;160569.63;;;21.18;34.90
7940;BME280;4015;48.888;9.226;2023-04-09T11:34:01;161003.09;;;22.90;33.84
7940;BME280;4015;48.888;9.226;2023-04-09T11:36:26;161126.63;;;23.39;33.65
7940;BME280;4015;48.888;9.226;2023-04-09T11:38:52;160885.97;;;22.44;34.63
7940;BME280;4015;48.888;9.226;2023-04-09T11:41:35;161153.63;;;23.50;36.87
7940;BME280;4015;48.888;9.226;2023-04-09T11:44:02;161393.13;;;24.44;33.05
7940;BME280;4015;48.888;9.226;2023-04-09T11:46:32;161502.59;;;24.88;33.36
7940;BME280;4015;48.888;9.226;2023-04-09T11:48:58;161045.56;;;23.07;32.17
7940;BME280;4015;48.888;9.226;2023-04-09T11:51:25;160942.56;;;22.66;35.00
7940;BME280;4015;48.888;9.226;2023-04-09T11:53:51;161053.25;;;23.10;34.81
7940;BME280;4015;48.888;9.226;2023-04-09T11:56:17;160949.00;;;22.69;33.12
7940;BME280;4015;48.888;9.226;2023-04-09T11:58:46;160949.00;;;22.69;36.02
7940;BME280;4015;48.888;9.226;2023-04-09T12:01:12;160588.88;;;21.26;36.46
7940;BME280;4015;48.888;9.226;2023-04-09T12:03:38;160657.03;;;21.53;37.82
7940;BME280;4015;48.888;9.226;2023-04-09T12:06:04;160405.09;;;20.53;37.22
7940;BME280;4015;48.888;9.226;2023-04-09T12:08:32;160122.38;;;19.41;36.83
7940;BME280;4015;48.888;9.226;2023-04-09T12:11:14;160055.63;;;19.14;37.66
7940;BME280;4015;48.888;9.226;2023-04-09T12:13:40;160024.81;;;19.02;38.47
7940;BME280;4015;48.888;9.226;2023-04-09T12:16:12;160044.06;;;19.10;38.13
7940;BME280;4015;48.888;9.226;2023-04-09T12:18:38;160044.06;;;19.10;37.82
7940;BME280;4015;48.888;9.226;2023-04-09T12:21:04;159877.16;;;18.44;38.48
7940;BME280;4015;48.888;9.226;2023-04-09T12:23:30;159774.47;;;18.03;37.71
7940;BME280;4015;48.888;9.226;2023-04-09T12:25:56;159764.25;;;17.99;39.54
7940;BME280;4015;48.888;9.226;2023-04-09T12:28:24;159843.81;;;18.30;39.50
7940;BME280;4015;48.888;9.226;2023-04-09T12:30:50;159811.72;;;18.18;39.72
7940;BME280;4015;48.888;9.226;2023-04-09T12:33:15;159802.72;;;18.14;39.10
7940;BME280;4015;48.888;9.226;2023-04-09T12:35:41;159854.03;;;18.34;39.07
7940;BME280;4015;48.888;9.226;2023-04-09T12:38:06;159756.50;;;17.96;40.53
7940;BME280;4015;48.888;9.226;2023-04-09T12:40:31;160056.91;;;19.15;39.01
7940;BME280;4015;48.888;9.226;2023-04-09T12:42:57;159932.31;;;18.66;38.52
7940;BME280;4015;48.888;9.226;2023-04-09T12:45:22;160154.50;;;19.54;37.47
7940;BME280;4015;48.888;9.226;2023-04-09T12:47:48;160374.19;;;20.41;36.93
7940;BME280;4015;48.888;9.226;2023-04-09T12:50:14;160388.38;;;20.46;36.67
7940;BME280;4015;48.888;9.226;2023-04-09T12:52:40;160462.94;;;20.76;36.77
7940;BME280;4015;48.888;9.226;2023-04-09T12:55:07;160516.88;;;20.97;34.91
7940;BME280;4015;48.888;9.226;2023-04-09T12:57:32;160682.78;;;21.63;34.40
7940;BME280;4015;48.888;9.226;2023-04-09T12:59:58;160671.19;;;21.59;34.92
7940;BME280;4015;48.888;9.226;2023-04-09T13:02:23;160922.00;;;22.58;33.72
7940;BME280;4015;48.888;9.226;2023-04-09T13:04:49;161157.50;;;23.51;34.06
7940;BME280;4015;48.888;9.226;2023-04-09T13:07:15;161172.97;;;23.57;32.51
7940;BME280;4015;48.888;9.226;2023-04-09T13:09:45;160915.56;;;22.55;32.74
7940;BME280;4015;48.888;9.226;2023-04-09T13:12:10;161015.97;;;22.95;32.49
7940;BME280;4015;48.888;9.226;2023-04-09T13:14:42;161369.97;;;24.35;32.61
7940;BME280;4015;48.888;9.226;2023-04-09T13:17:07;161224.47;;;23.78;32.75
7940;BME280;4015;48.888;9.226;2023-04-09T13:19:32;161049.41;;;23.08;33.31
7940;BME280;4015;48.888;9.226;2023-04-09T13:21:58;161082.88;;;23.22;33.08
7940;BME280;4015;48.888;9.226;2023-04-09T13:24:23;161265.63;;;23.94;32.44